Time;durP1;ratioP1;P1;durP2;ratioP2;P2;SDS_P1;SDS_P2;PMS_P1;PMS_P2;Temp;Humidity;BMP_temperature;BMP_pressure;BME280_temperature;BME280_humidity;BME280_pressure;Samples;Min_cycle;Max_cycle;Signal;HPM_P1;HPM_P2
2022/11/13 00:01:20;;;;;;;36.63;28.77;;;6.00;99.90;;;;;;5131413;27;20402;-75
2022/11/13 00:03:45;;;;;;;36.92;28.45;;;6.10;99.90;;;;;;5078491;28;20404;-75
2022/11/13 00:06:12;;;;;;;36.70;28.15;;;6.10;99.90;;;;;;5121890;27;20391;-75
2022/11/13 00:08:38;;;;;;;36.17;28.63;;;6.10;99.90;;;;;;5117756;27;20423;-75
2022/11/13 00:11:13;;;;;;;36.80;28.97;;;6.10;99.90;;;;;;5119570;27;20431;-75
2022/11/13 00:13:39;;;;;;;36.87;27.90;;;6.20;99.90;;;;;;5129939;27;20788;-75
2022/11/13 00:16:08;;;;;;;35.55;26.92;;;6.20;99.90;;;;;;5130676;27;20395;-75
2022/11/13 00:18:35;;;;;;;37.50;27.77;;;6.20;99.90;;;;;;5123734;27;20758;-75
2022/11/13 00:21:06;;;;;;;39.20;29.00;;;6.20;99.90;;;;;;5092684;27;20488;-75
2022/11/13 00:23:33;;;;;;;43.17;29.52;;;6.20;99.90;;;;;;5118443;27;20402;-75
2022/11/13 00:26:10;;;;;;;38.88;27.88;;;6.20;99.90;;;;;;5123226;27;20398;-75
2022/11/13 00:28:36;;;;;;;39.70;29.42;;;6.20;99.90;;;;;;5119838;27;20451;-75
2022/11/13 00:31:03;;;;;;;37.70;29.55;;;6.20;99.90;;;;;;5082190;27;20408;-75
2022/11/13 00:33:29;;;;;;;45.15;31.33;;;6.30;99.90;;;;;;5130751;27;20749;-75
2022/11/13 00:36:02;;;;;;;43.33;31.20;;;6.30;99.90;;;;;;5130079;27;20414;-75
2022/11/13 00:38:28;;;;;;;42.25;31.23;;;6.30;99.90;;;;;;5112621;27;20407;-75
2022/11/13 00:40:53;;;;;;;39.50;30.63;;;6.30;99.90;;;;;;5130134;27;20912;-75
2022/11/13 00:43:19;;;;;;;45.73;33.60;;;6.40;99.90;;;;;;5108452;28;20400;-75
2022/11/13 00:45:44;;;;;;;46.92;33.55;;;6.40;99.90;;;;;;5126184;27;20406;-75
2022/11/13 00:48:10;;;;;;;45.97;32.53;;;6.50;99.90;;;;;;5102831;28;20901;-75
2022/11/13 00:50:36;;;;;;;46.08;33.28;;;6.50;99.90;;;;;;5112620;27;20403;-75
2022/11/13 00:53:01;;;;;;;46.65;33.85;;;6.50;99.90;;;;;;5120379;27;20431;-75
2022/11/13 00:55:27;;;;;;;44.67;34.20;;;6.60;99.90;;;;;;5126084;27;20407;-75
2022/11/13 00:57:52;;;;;;;48.10;34.50;;;6.60;99.90;;;;;;5106032;28;20400;-75
2022/11/13 01:00:18;;;;;;;44.23;33.37;;;6.60;99.90;;;;;;5110646;27;20422;-75
2022/11/13 01:02:44;;;;;;;44.67;32.50;;;6.70;99.90;;;;;;5121794;27;20402;-75
2022/11/13 01:05:09;;;;;;;43.33;31.23;;;6.70;99.90;;;;;;5129444;27;20441;-75
2022/11/13 01:07:36;;;;;;;45.70;31.93;;;6.80;99.90;;;;;;5111317;27;20411;-75
2022/11/13 01:10:06;;;;;;;42.22;32.00;;;6.80;99.90;;;;;;5114988;27;20402;-75
2022/11/13 01:12:32;;;;;;;42.72;31.42;;;6.90;99.90;;;;;;5129811;27;20410;-75
2022/11/13 01:14:59;;;;;;;42.50;30.90;;;6.90;99.90;;;;;;5116405;27;20405;-75
2022/11/13 01:17:25;;;;;;;42.65;31.50;;;6.90;99.90;;;;;;5110045;28;20441;-75
2022/11/13 01:19:51;;;;;;;48.17;32.88;;;6.90;99.90;;;;;;5123166;27;20396;-75
2022/11/13 01:22:16;;;;;;;47.40;33.00;;;6.90;99.90;;;;;;5116918;27;20398;-75
2022/11/13 01:24:42;;;;;;;48.08;34.42;;;6.90;99.90;;;;;;5116287;27;20503;-75
2022/11/13 01:27:08;;;;;;;47.72;34.22;;;6.90;99.90;;;;;;5107597;28;20878;-75
2022/11/13 01:29:33;;;;;;;52.53;34.23;;;6.90;99.90;;;;;;5110738;27;20907;-75
2022/11/13 01:31:59;;;;;;;42.50;30.25;;;7.00;99.90;;;;;;5129771;27;20910;-75
2022/11/13 01:34:24;;;;;;;41.47;29.97;;;7.00;99.90;;;;;;5120220;27;20490;-75
2022/11/13 01:36:50;;;;;;;38.78;28.27;;;7.00;99.90;;;;;;5129043;27;20490;-75
2022/11/13 01:39:16;;;;;;;38.05;28.20;;;7.10;99.90;;;;;;5115470;27;20396;-75
2022/11/13 01:41:42;;;;;;;37.30;28.00;;;7.20;99.90;;;;;;5118645;27;20407;-75
2022/11/13 01:44:15;;;;;;;39.53;27.77;;;7.20;99.90;;;;;;5128932;27;21377;-75
2022/11/13 01:46:44;;;;;;;42.50;28.38;;;7.30;99.90;;;;;;5118484;27;20401;-75
2022/11/13 01:49:09;;;;;;;36.83;27.65;;;7.30;99.90;;;;;;5126758;27;20421;-75
2022/11/13 01:51:38;;;;;;;37.70;27.70;;;7.30;99.90;;;;;;5107264;28;20903;-75
2022/11/13 01:54:11;;;;;;;35.55;25.67;;;7.30;99.90;;;;;;5126928;27;20466;-75
2022/11/13 01:56:37;;;;;;;33.13;25.08;;;7.30;99.90;;;;;;5129127;27;20425;-75
2022/11/13 01:59:11;;;;;;;32.97;25.67;;;7.30;99.90;;;;;;5106827;28;20480;-75
2022/11/13 02:01:37;;;;;;;33.65;25.02;;;7.40;99.90;;;;;;5117997;28;20393;-75
2022/11/13 02:04:03;;;;;;;32.17;23.90;;;7.30;99.90;;;;;;5094133;28;20410;-75
2022/11/13 02:06:51;;;;;;;31.73;23.88;;;7.40;99.90;;;;;;5118604;28;20477;-75
2022/11/13 02:09:26;;;;;;;28.98;23.50;;;7.40;99.90;;;;;;5119167;28;20884;-75
2022/11/13 02:11:53;;;;;;;33.63;24.98;;;7.40;99.90;;;;;;5114354;28;20481;-75
2022/11/13 02:14:20;;;;;;;34.05;24.65;;;7.50;99.90;;;;;;5121337;28;20835;-75
2022/11/13 02:16:49;;;;;;;33.20;24.60;;;7.50;99.90;;;;;;5114980;28;20482;-75
2022/11/13 02:19:28;;;;;;;34.35;25.20;;;7.40;99.90;;;;;;5126859;28;20387;-75
2022/11/13 02:22:09;;;;;;;31.80;24.58;;;7.40;99.90;;;;;;5107324;28;20904;-75
2022/11/13 02:24:39;;;;;;;30.48;23.77;;;7.40;99.90;;;;;;5126950;28;20452;-75
2022/11/13 02:27:13;;;;;;;30.98;24.08;;;7.40;99.90;;;;;;5120589;28;20745;-75
2022/11/13 02:29:39;;;;;;;33.80;24.50;;;7.40;99.90;;;;;;5106575;28;21286;-75
2022/11/13 02:32:04;;;;;;;30.40;24.00;;;7.40;99.90;;;;;;5118724;28;20396;-75
2022/11/13 02:34:30;;;;;;;30.75;23.33;;;7.50;99.90;;;;;;5126615;28;21155;-76
2022/11/13 02:36:55;;;;;;;30.00;23.23;;;7.50;99.90;;;;;;5109005;28;20919;-75
2022/11/13 02:39:21;;;;;;;30.05;23.05;;;7.50;99.90;;;;;;5104822;28;20396;-75
2022/11/13 02:41:46;;;;;;;30.23;23.80;;;7.40;99.90;;;;;;5119879;28;20798;-75
2022/11/13 02:44:12;;;;;;;30.38;24.23;;;7.50;99.90;;;;;;5127796;28;20468;-75
2022/11/13 02:46:38;;;;;;;33.27;24.03;;;7.40;99.90;;;;;;5100557;28;20408;-74
2022/11/13 02:49:04;;;;;;;31.23;24.03;;;7.40;99.90;;;;;;5122638;28;20407;-75
2022/11/13 02:51:30;;;;;;;33.75;24.63;;;7.40;99.90;;;;;;5107032;28;20541;-75
2022/11/13 02:53:55;;;;;;;35.65;25.20;;;7.40;99.90;;;;;;5109807;28;20521;-75
2022/11/13 02:56:21;;;;;;;32.70;23.70;;;7.40;99.90;;;;;;5089845;28;20392;-75
2022/11/13 02:58:46;;;;;;;33.50;24.43;;;7.40;99.90;;;;;;5124059;27;20403;-75
2022/11/13 03:01:12;;;;;;;32.83;24.17;;;7.30;99.90;;;;;;5111956;27;20913;-75
2022/11/13 03:03:38;;;;;;;32.90;24.43;;;7.30;99.90;;;;;;5132510;27;20394;-75
2022/11/13 03:06:03;;;;;;;34.67;25.15;;;7.30;99.90;;;;;;5131613;27;20395;-75
2022/11/13 03:08:30;;;;;;;36.40;25.67;;;7.30;99.90;;;;;;5129834;27;20487;-75
2022/11/13 03:10:56;;;;;;;33.75;23.77;;;7.30;99.90;;;;;;5097159;28;20487;-75
2022/11/13 03:13:22;;;;;;;38.83;25.15;;;7.30;99.90;;;;;;5126024;27;20511;-75
2022/11/13 03:15:47;;;;;;;33.55;24.75;;;7.30;99.90;;;;;;5121933;27;20393;-75
2022/11/13 03:18:13;;;;;;;39.77;26.23;;;7.30;99.90;;;;;;5122604;27;20449;-75
2022/11/13 03:20:41;;;;;;;35.28;25.77;;;7.20;99.90;;;;;;5110792;28;20487;-75
2022/11/13 03:23:07;;;;;;;33.25;25.15;;;7.20;99.90;;;;;;5100761;28;20446;-75
2022/11/13 03:25:33;;;;;;;36.10;25.00;;;7.20;99.90;;;;;;5126110;27;20503;-75
2022/11/13 03:27:59;;;;;;;38.10;26.77;;;7.20;99.90;;;;;;5127542;27;20919;-75
2022/11/13 03:30:26;;;;;;;36.88;25.73;;;7.20;99.90;;;;;;5122103;27;20406;-75
2022/11/13 03:32:55;;;;;;;38.60;27.17;;;7.20;99.90;;;;;;5124906;27;20424;-75
2022/11/13 03:35:24;;;;;;;39.17;26.35;;;7.20;99.90;;;;;;5122420;27;20398;-75
2022/11/13 03:37:50;;;;;;;39.13;26.77;;;7.30;99.90;;;;;;5131294;27;20398;-75
2022/11/13 03:40:16;;;;;;;39.13;26.60;;;7.20;99.90;;;;;;5131272;27;20402;-75
2022/11/13 03:42:42;;;;;;;38.83;27.00;;;7.20;99.90;;;;;;5127814;27;20432;-75
2022/11/13 03:45:07;;;;;;;41.90;27.17;;;7.20;99.90;;;;;;5131393;27;20483;-75
2022/11/13 03:47:33;;;;;;;41.03;27.40;;;7.20;99.90;;;;;;5120601;27;20430;-75
2022/11/13 03:49:59;;;;;;;44.67;28.03;;;7.20;99.90;;;;;;5111906;27;20868;-75
2022/11/13 03:52:24;;;;;;;39.13;26.70;;;7.10;99.90;;;;;;5128305;27;20398;-75
2022/11/13 03:54:50;;;;;;;44.43;29.00;;;7.20;99.90;;;;;;5109730;28;20415;-75
2022/11/13 03:57:15;;;;;;;42.50;27.50;;;7.20;99.90;;;;;;5125870;27;20440;-75
2022/11/13 03:59:41;;;;;;;42.72;28.20;;;7.10;99.90;;;;;;5114339;27;20400;-75
2022/11/13 04:02:07;;;;;;;43.83;28.67;;;7.10;99.90;;;;;;5131558;27;20399;-75
2022/11/13 04:04:32;;;;;;;46.42;29.13;;;7.10;99.90;;;;;;5125968;27;20396;-75
2022/11/13 04:06:58;;;;;;;40.20;28.40;;;7.10;99.90;;;;;;5122293;27;20789;-75
2022/11/13 04:09:24;;;;;;;41.33;28.13;;;7.10;99.90;;;;;;5125866;27;20523;-75
2022/11/13 04:11:49;;;;;;;40.50;28.13;;;7.10;99.90;;;;;;5120692;27;20470;-75
2022/11/13 04:14:15;;;;;;;41.10;27.27;;;7.10;99.90;;;;;;5129485;27;20927;-75
2022/11/13 04:16:41;;;;;;;37.80;25.60;;;7.10;99.90;;;;;;5130250;27;20394;-75
2022/11/13 04:19:06;;;;;;;40.17;27.30;;;7.10;99.90;;;;;;5129820;27;20759;-75
2022/11/13 04:21:32;;;;;;;39.20;26.67;;;7.10;99.90;;;;;;5130208;27;21087;-75
2022/11/13 04:23:57;;;;;;;40.90;27.20;;;7.10;99.90;;;;;;5129567;27;20403;-75
2022/11/13 04:26:23;;;;;;;42.37;26.70;;;7.10;99.90;;;;;;5129782;27;20390;-75
2022/11/13 04:28:48;;;;;;;40.20;27.63;;;7.10;99.90;;;;;;5126336;27;20889;-75
2022/11/13 04:31:14;;;;;;;40.27;26.80;;;7.10;99.90;;;;;;5124505;27;20406;-75
2022/11/13 04:33:40;;;;;;;41.70;26.40;;;7.10;99.90;;;;;;5116375;27;20775;-75
2022/11/13 04:36:06;;;;;;;38.87;25.20;;;7.10;99.90;;;;;;5120322;27;21291;-75
2022/11/13 04:38:31;;;;;;;40.58;25.98;;;7.10;99.90;;;;;;5120971;27;20990;-75
2022/11/13 04:43:41;;;;;;;40.60;26.80;;;7.10;99.90;;;;;;5112332;27;20401;-75
2022/11/13 04:46:07;;;;;;;43.40;27.57;;;7.10;99.90;;;;;;5123328;27;20402;-75
2022/11/13 04:48:33;;;;;;;46.83;28.40;;;7.00;99.90;;;;;;5112294;27;20402;-75
2022/11/13 04:50:58;;;;;;;42.55;28.13;;;7.00;99.90;;;;;;5128811;27;20402;-75
2022/11/13 04:53:24;;;;;;;41.78;27.60;;;7.00;99.90;;;;;;5124616;27;20427;-75
2022/11/13 04:55:52;;;;;;;46.00;27.67;;;7.00;99.90;;;;;;5127375;27;20390;-75
2022/11/13 04:58:18;;;;;;;48.47;29.15;;;7.00;99.90;;;;;;5109580;27;20409;-75
2022/11/13 05:00:43;;;;;;;45.80;28.40;;;6.90;99.90;;;;;;5108459;28;20833;-75
2022/11/13 05:03:09;;;;;;;40.90;27.40;;;6.90;99.90;;;;;;5103902;27;20407;-75
2022/11/13 05:05:34;;;;;;;40.38;26.27;;;6.90;99.90;;;;;;5108648;28;20702;-75
2022/11/13 05:08:00;;;;;;;38.47;26.03;;;6.90;99.90;;;;;;5105577;28;20400;-75
2022/11/13 05:10:25;;;;;;;40.15;25.33;;;6.90;99.90;;;;;;5096844;27;20410;-75
2022/11/13 05:12:55;;;;;;;36.53;24.77;;;6.90;99.90;;;;;;5106348;28;20427;-75
2022/11/13 05:15:20;;;;;;;37.08;24.50;;;6.90;99.90;;;;;;5123079;27;20811;-75
2022/11/13 05:17:48;;;;;;;34.90;23.67;;;6.90;99.90;;;;;;5109439;27;20410;-75
2022/11/13 05:20:14;;;;;;;34.25;23.67;;;6.90;99.90;;;;;;5108176;28;20414;-74
2022/11/13 05:22:39;;;;;;;34.27;23.27;;;6.90;99.90;;;;;;5106736;28;20894;-74
2022/11/13 05:25:05;;;;;;;32.47;23.03;;;6.90;99.90;;;;;;5107897;28;20583;-75
2022/11/13 05:27:31;;;;;;;34.55;23.38;;;6.80;99.90;;;;;;5125338;27;20443;-75
2022/11/13 05:29:56;;;;;;;35.80;22.83;;;6.80;99.90;;;;;;5119615;27;20451;-75
2022/11/13 05:32:22;;;;;;;31.30;22.40;;;6.80;99.90;;;;;;5107978;28;20407;-75
2022/11/13 05:34:47;;;;;;;30.50;22.10;;;6.80;99.90;;;;;;5121471;27;21061;-75
2022/11/13 05:37:13;;;;;;;33.90;23.17;;;6.80;99.90;;;;;;5094557;28;20513;-75
2022/11/13 05:39:39;;;;;;;32.60;22.00;;;6.70;99.90;;;;;;5125353;27;20402;-75
2022/11/13 05:42:05;;;;;;;32.77;21.97;;;6.70;99.90;;;;;;5129057;27;20420;-75
2022/11/13 05:44:30;;;;;;;35.00;23.17;;;6.60;99.90;;;;;;5107380;28;20404;-75
2022/11/13 05:46:56;;;;;;;32.80;21.77;;;6.60;99.90;;;;;;5093684;28;20466;-74
2022/11/13 05:49:21;;;;;;;37.40;23.37;;;6.60;99.90;;;;;;5109605;28;20800;-74
2022/11/13 05:51:47;;;;;;;34.35;23.15;;;6.60;99.90;;;;;;5122710;27;20406;-75
2022/11/13 05:54:13;;;;;;;36.13;23.27;;;6.50;99.90;;;;;;5109176;28;20894;-75
2022/11/13 05:56:39;;;;;;;36.13;22.77;;;6.50;99.90;;;;;;5115664;27;20394;-75
2022/11/13 05:59:05;;;;;;;33.08;21.63;;;6.50;99.90;;;;;;5107088;28;20963;-75
2022/11/13 06:01:40;;;;;;;32.72;21.98;;;6.50;99.90;;;;;;5128984;27;20398;-75
2022/11/13 06:04:06;;;;;;;34.70;23.15;;;6.40;99.90;;;;;;5110109;28;20390;-75
2022/11/13 06:06:32;;;;;;;37.72;24.15;;;6.40;99.90;;;;;;5128962;28;20395;-75
2022/11/13 06:09:00;;;;;;;42.00;23.85;;;6.40;99.90;;;;;;5128631;28;20741;-75
2022/11/13 06:11:28;;;;;;;34.38;23.50;;;6.40;99.90;;;;;;5128333;28;20381;-75
2022/11/13 06:13:54;;;;;;;37.35;24.70;;;6.40;99.90;;;;;;5127676;28;20427;-75
2022/11/13 06:16:26;;;;;;;33.97;23.63;;;6.40;99.90;;;;;;5117234;28;20424;-75
2022/11/13 06:18:59;;;;;;;37.28;23.67;;;6.40;99.90;;;;;;5126830;28;20399;-75
2022/11/13 06:21:28;;;;;;;32.30;22.77;;;6.40;99.90;;;;;;5118396;28;20922;-75
2022/11/13 06:23:53;;;;;;;33.75;23.20;;;6.40;99.90;;;;;;5125555;28;20416;-75
2022/11/13 06:26:25;;;;;;;32.45;22.40;;;6.50;99.90;;;;;;5090576;28;20405;-75
2022/11/13 06:28:52;;;;;;;29.38;22.10;;;6.40;99.90;;;;;;5125952;28;20490;-75
2022/11/13 06:31:26;;;;;;;30.25;22.52;;;6.40;99.90;;;;;;5090469;28;20874;-75
2022/11/13 06:33:52;;;;;;;31.23;22.08;;;6.40;99.90;;;;;;5115568;27;20479;-75
2022/11/13 06:36:23;;;;;;;29.90;21.70;;;6.40;99.90;;;;;;5124843;27;20447;-75
2022/11/13 06:38:49;;;;;;;30.63;21.97;;;6.40;99.90;;;;;;5096874;28;20447;-75
2022/11/13 06:41:18;;;;;;;31.40;22.20;;;6.40;99.90;;;;;;5086871;28;20412;-75
2022/11/13 06:43:44;;;;;;;29.92;22.02;;;6.40;99.90;;;;;;5106167;28;20409;-75
2022/11/13 06:46:16;;;;;;;30.42;21.63;;;6.40;99.90;;;;;;5123510;27;20394;-75
2022/11/13 06:48:42;;;;;;;29.90;21.58;;;6.50;99.90;;;;;;5120169;27;20482;-75
2022/11/13 06:51:15;;;;;;;30.20;21.37;;;6.50;99.90;;;;;;5112999;27;20481;-75
2022/11/13 06:53:41;;;;;;;31.80;22.27;;;6.40;99.90;;;;;;5121196;27;20427;-74
2022/11/13 06:56:07;;;;;;;30.05;22.05;;;6.50;99.90;;;;;;5132272;27;20409;-75
2022/11/13 06:58:32;;;;;;;29.20;22.43;;;6.40;99.90;;;;;;5113808;27;20413;-75
2022/11/13 07:01:07;;;;;;;28.35;21.65;;;6.40;99.90;;;;;;5132140;27;20402;-75
2022/11/13 07:03:33;;;;;;;30.40;22.40;;;6.40;99.90;;;;;;5110445;28;20396;-75
2022/11/13 07:06:02;;;;;;;30.33;22.00;;;6.40;99.90;;;;;;5128574;27;20779;-75
2022/11/13 07:08:28;;;;;;;33.00;22.30;;;6.30;99.90;;;;;;5094073;28;20495;-75
2022/11/13 07:10:55;;;;;;;28.10;21.20;;;6.30;99.90;;;;;;5128925;27;20993;-75
2022/11/13 07:13:21;;;;;;;26.98;20.95;;;6.20;99.90;;;;;;5110360;28;20428;-75
2022/11/13 07:15:46;;;;;;;27.98;21.08;;;6.20;99.90;;;;;;5087028;27;20486;-75
2022/11/13 07:18:12;;;;;;;28.92;21.13;;;6.30;99.90;;;;;;5132213;27;20823;-75
2022/11/13 07:20:38;;;;;;;28.70;21.70;;;6.30;99.90;;;;;;5118245;27;20499;-75
2022/11/13 07:23:04;;;;;;;29.13;21.33;;;6.20;99.90;;;;;;5110552;28;20410;-75
2022/11/13 07:25:30;;;;;;;29.92;21.00;;;6.30;99.90;;;;;;5112838;27;20410;-75
2022/11/13 07:27:56;;;;;;;29.58;21.10;;;6.30;99.90;;;;;;5131750;27;20771;-75
2022/11/13 07:30:22;;;;;;;28.55;21.02;;;6.30;99.90;;;;;;5130908;27;20482;-75
2022/11/13 07:32:48;;;;;;;28.55;20.55;;;6.30;99.90;;;;;;5113918;27;20398;-75
2022/11/13 07:35:15;;;;;;;30.27;20.92;;;6.30;99.90;;;;;;5110201;27;20411;-75
2022/11/13 07:37:41;;;;;;;28.23;20.55;;;6.30;99.90;;;;;;5104078;28;20412;-75
2022/11/13 07:40:07;;;;;;;30.52;21.73;;;6.30;99.90;;;;;;5127630;27;21485;-74
2022/11/13 07:42:33;;;;;;;30.40;21.25;;;6.40;99.90;;;;;;5131584;27;21462;-74
2022/11/13 07:45:01;;;;;;;29.20;21.05;;;6.30;99.90;;;;;;5111669;28;21459;-75
2022/11/13 07:47:27;;;;;;;26.70;21.03;;;6.40;99.90;;;;;;5131134;27;20480;-75
2022/11/13 07:49:52;;;;;;;29.58;21.25;;;6.40;99.90;;;;;;5128224;27;20435;-75
2022/11/13 07:52:18;;;;;;;29.08;21.27;;;6.40;99.90;;;;;;5117627;27;20417;-75
2022/11/13 07:54:44;;;;;;;26.17;20.33;;;6.50;99.90;;;;;;5104573;27;20496;-75
2022/11/13 07:57:09;;;;;;;27.13;20.13;;;6.50;99.90;;;;;;5129721;27;20409;-75
2022/11/13 07:59:35;;;;;;;28.15;20.33;;;6.50;99.90;;;;;;5111260;27;20442;-75
2022/11/13 08:02:01;;;;;;;27.30;19.90;;;6.50;99.90;;;;;;5109954;27;20405;-74
2022/11/13 08:04:29;;;;;;;25.27;20.07;;;6.50;99.90;;;;;;5107293;27;20752;-74
2022/11/13 08:06:55;;;;;;;26.37;20.13;;;6.60;99.90;;;;;;5108128;28;20401;-75
2022/11/13 08:09:20;;;;;;;26.33;19.40;;;6.70;99.90;;;;;;5110285;27;20406;-74
2022/11/13 08:11:46;;;;;;;25.60;18.90;;;6.70;99.90;;;;;;5129020;27;20433;-75
2022/11/13 08:14:12;;;;;;;24.60;18.67;;;6.70;99.90;;;;;;5103364;27;20435;-75
2022/11/13 08:16:37;;;;;;;24.13;18.40;;;6.80;99.90;;;;;;5110113;27;20403;-74
2022/11/13 08:19:03;;;;;;;26.83;19.57;;;6.80;99.90;;;;;;5107134;27;20409;-74
2022/11/13 08:21:29;;;;;;;24.38;18.75;;;6.80;99.90;;;;;;5103056;28;20571;-74
2022/11/13 08:23:55;;;;;;;24.25;18.88;;;6.90;99.90;;;;;;5093083;27;20610;-74
2022/11/13 08:26:21;;;;;;;22.80;17.98;;;6.90;99.90;;;;;;5120687;27;20394;-74
2022/11/13 08:28:46;;;;;;;24.95;17.90;;;7.00;99.90;;;;;;5129043;27;20397;-74
2022/11/13 08:31:14;;;;;;;22.97;17.47;;;7.00;99.90;;;;;;5106535;27;20399;-74
2022/11/13 08:33:40;;;;;;;23.77;17.33;;;7.10;99.90;;;;;;5129419;27;20526;-74
2022/11/13 08:36:07;;;;;;;21.85;17.13;;;7.10;99.90;;;;;;5123561;27;20430;-74
2022/11/13 08:38:33;;;;;;;20.70;16.33;;;7.20;99.90;;;;;;5118431;27;20461;-74
2022/11/13 08:41:00;;;;;;;21.27;15.60;;;7.20;99.90;;;;;;5115954;27;20415;-74
2022/11/13 08:43:26;;;;;;;20.43;15.57;;;7.20;99.90;;;;;;5126238;27;20499;-74
2022/11/13 08:45:52;;;;;;;19.43;15.13;;;7.30;99.90;;;;;;5107279;28;20432;-75
2022/11/13 08:48:17;;;;;;;20.33;15.35;;;7.30;99.90;;;;;;5092011;27;20405;-74
2022/11/13 08:50:43;;;;;;;19.85;15.15;;;7.30;99.90;;;;;;5107848;27;20408;-75
2022/11/13 08:53:10;;;;;;;18.45;14.13;;;7.40;99.90;;;;;;5122358;27;20827;-74
2022/11/13 08:55:35;;;;;;;20.08;15.15;;;7.40;99.90;;;;;;5107287;27;20852;-75
2022/11/13 08:58:03;;;;;;;19.48;14.15;;;7.50;99.90;;;;;;5128686;27;20394;-75
2022/11/13 09:00:30;;;;;;;18.73;13.95;;;7.50;99.90;;;;;;5128186;27;20410;-74
2022/11/13 09:02:57;;;;;;;19.30;15.10;;;7.60;99.90;;;;;;5109563;27;20455;-75
2022/11/13 09:05:23;;;;;;;19.92;14.75;;;7.60;99.90;;;;;;5107415;27;20411;-74
2022/11/13 09:07:49;;;;;;;19.20;14.33;;;7.70;99.90;;;;;;5126640;27;20430;-74
2022/11/13 09:10:18;;;;;;;19.50;15.07;;;7.80;99.90;;;;;;5093774;27;20445;-75
2022/11/13 09:12:44;;;;;;;20.38;14.50;;;7.80;99.90;;;;;;5127763;27;20423;-74
2022/11/13 09:15:10;;;;;;;23.33;16.15;;;7.90;99.90;;;;;;5108261;27;20493;-74
2022/11/13 09:17:36;;;;;;;21.30;15.93;;;8.00;99.90;;;;;;5106929;28;20408;-75
2022/11/13 09:20:03;;;;;;;25.02;16.35;;;8.10;99.90;;;;;;5130457;27;20399;-75
2022/11/13 09:22:28;;;;;;;24.67;17.25;;;8.10;99.90;;;;;;5107027;28;20408;-75
2022/11/13 09:24:54;;;;;;;24.05;17.02;;;8.20;99.90;;;;;;5099236;28;20986;-76
2022/11/13 09:27:19;;;;;;;25.00;16.67;;;8.30;99.90;;;;;;5086336;27;20971;-76
2022/11/13 09:29:45;;;;;;;23.25;15.80;;;8.30;99.90;;;;;;5129720;27;20391;-76
2022/11/13 09:32:11;;;;;;;21.73;15.13;;;8.40;99.90;;;;;;5108868;27;20896;-76
2022/11/13 09:34:36;;;;;;;22.83;14.73;;;8.50;99.90;;;;;;5094279;27;20430;-76
2022/11/13 09:37:02;;;;;;;20.77;14.88;;;8.50;99.90;;;;;;5090060;28;20523;-76
2022/11/13 09:39:27;;;;;;;20.17;15.30;;;8.50;99.90;;;;;;5101450;28;20478;-76
2022/11/13 09:42:13;;;;;;;19.42;14.23;;;8.60;99.90;;;;;;5116659;27;20822;-76
2022/11/13 09:44:55;;;;;;;19.47;14.77;;;8.60;99.90;;;;;;5128828;27;20457;-76
2022/11/13 09:47:25;;;;;;;18.05;14.40;;;8.60;99.90;;;;;;5125882;27;20477;-76
2022/11/13 09:50:06;;;;;;;19.42;14.70;;;8.70;99.90;;;;;;5129319;27;20825;-76
2022/11/13 09:52:39;;;;;;;18.40;14.15;;;8.70;99.90;;;;;;5120866;27;20406;-76
2022/11/13 09:55:09;;;;;;;18.30;13.93;;;8.70;99.90;;;;;;5127175;27;20521;-75
2022/11/13 09:58:26;;;;;;;18.77;13.65;;;8.80;99.90;;;;;;5106644;28;20509;-76
2022/11/13 10:00:52;;;;;;;15.32;12.65;;;8.80;99.90;;;;;;5109870;27;20411;-76
2022/11/13 10:03:42;;;;;;;16.80;13.10;;;8.80;99.90;;;;;;5119342;27;20432;-75
2022/11/13 10:06:31;;;;;;;20.13;15.10;;;8.90;99.90;;;;;;5124197;28;20457;-77
2022/11/13 10:09:02;;;;;;;17.55;13.15;;;8.90;99.90;;;;;;5123684;27;20510;-76
2022/11/13 10:11:40;;;;;;;15.68;13.13;;;8.90;99.90;;;;;;5125906;28;20806;-76
2022/11/13 10:14:45;;;;;;;15.18;12.02;;;9.10;99.90;;;;;;5126294;28;20434;-76
2022/11/13 10:17:39;;;;;;;14.20;10.88;;;10.30;99.90;;;;;;4991279;28;20797;-76
2022/11/13 10:20:20;;;;;;;11.30;10.10;;;11.80;99.90;;;;;;5099916;28;20430;-75
2022/11/13 10:22:51;;;;;;;12.85;9.85;;;13.10;99.90;;;;;;5116827;28;20425;-76
2022/11/13 10:25:22;;;;;;;13.73;10.13;;;13.90;99.90;;;;;;5127305;28;20511;-76
2022/11/13 10:27:54;;;;;;;10.68;9.10;;;14.40;99.90;;;;;;5085066;28;20428;-76
2022/11/13 10:30:20;;;;;;;13.30;9.15;;;15.10;99.90;;;;;;5126615;28;20422;-76
2022/11/13 10:32:46;;;;;;;11.10;8.40;;;15.90;99.90;;;;;;5108135;28;20431;-77
2022/11/13 10:35:35;;;;;;;10.50;8.50;;;16.60;99.90;;;;;;5102282;28;20416;-76
2022/11/13 10:38:06;;;;;;;11.70;8.95;;;17.30;99.90;;;;;;5124274;28;20511;-76
2022/11/13 10:40:41;;;;;;;11.25;8.90;;;17.80;99.90;;;;;;5106394;28;20440;-76
2022/11/13 10:43:26;;;;;;;10.43;8.65;;;17.70;99.90;;;;;;5124777;28;20442;-77
2022/11/13 10:45:58;;;;;;;11.47;8.93;;;17.80;99.90;;;;;;5101367;28;20800;-76
2022/11/13 10:48:30;;;;;;;10.98;8.90;;;18.10;99.90;;;;;;5123544;28;20415;-76
2022/11/13 10:51:00;;;;;;;11.63;8.75;;;18.10;99.90;;;;;;5127052;28;20974;-76
2022/11/13 10:53:36;;;;;;;10.45;9.00;;;18.20;99.90;;;;;;5102278;28;20436;-76
2022/11/13 10:56:30;;;;;;;9.82;8.80;;;18.30;99.90;;;;;;5106765;28;20418;-76
2022/11/13 10:59:15;;;;;;;9.93;8.63;;;18.10;99.90;;;;;;5124209;28;20433;-76
2022/11/13 11:01:43;;;;;;;12.10;9.93;;;17.90;99.90;;;;;;5084857;28;20423;-76
2022/11/13 11:04:18;;;;;;;14.15;9.38;;;17.40;99.90;;;;;;5087492;28;20498;-76
2022/11/13 11:06:44;;;;;;;10.65;8.98;;;17.00;99.90;;;;;;5086390;28;20464;-76
2022/11/13 11:09:13;;;;;;;11.73;9.15;;;16.70;99.90;;;;;;5101814;28;20418;-76
2022/11/13 11:14:57;;;;;;;12.10;8.93;;;16.80;99.90;;;;;;5113758;28;20462;-76
2022/11/13 11:17:52;;;;;;;11.25;8.73;;;17.70;99.90;;;;;;5128297;28;20410;-76
2022/11/13 11:20:43;;;;;;;9.90;7.63;;;18.20;99.90;;;;;;5116883;27;20514;-76
2022/11/13 11:23:23;;;;;;;9.52;7.53;;;18.40;99.90;;;;;;5103964;27;20409;-76
2022/11/13 11:26:02;;;;;;;9.27;6.75;;;18.30;99.90;;;;;;5116393;27;20398;-76
2022/11/13 11:29:00;;;;;;;8.00;6.37;;;18.10;99.90;;;;;;5093136;27;20411;-76
2022/11/13 11:31:44;;;;;;;7.28;5.90;;;17.80;99.90;;;;;;5127849;27;20908;-76
2022/11/13 11:34:27;;;;;;;7.32;6.28;;;17.20;99.90;;;;;;5114889;27;20431;-76
2022/11/13 11:37:11;;;;;;;8.77;7.40;;;16.50;99.90;;;;;;5131044;27;20402;-76
2022/11/13 11:39:41;;;;;;;10.10;7.75;;;15.70;99.90;;;;;;5117860;27;20503;-76
2022/11/13 11:42:29;;;;;;;10.53;7.80;;;15.20;99.90;;;;;;5089685;28;21007;-75
2022/11/13 11:45:22;;;;;;;11.30;8.00;;;14.70;99.90;;;;;;5109978;28;20404;-75
2022/11/13 11:47:48;;;;;;;10.95;8.00;;;14.30;99.90;;;;;;5109811;28;20404;-75
2022/11/13 11:50:37;;;;;;;14.55;11.65;;;14.10;99.90;;;;;;5104616;28;20410;-75
2022/11/13 11:53:34;;;;;;;11.07;9.10;;;13.90;99.90;;;;;;5092968;28;20744;-75
2022/11/13 11:56:15;;;;;;;12.73;9.85;;;13.70;99.90;;;;;;5105708;28;20744;-75
2022/11/13 11:59:08;;;;;;;11.85;9.73;;;13.50;99.90;;;;;;5095316;28;20565;-75
2022/11/13 12:01:49;;;;;;;13.07;10.05;;;13.40;99.90;;;;;;5090859;28;20409;-76
2022/11/13 12:04:26;;;;;;;12.18;8.98;;;13.30;99.90;;;;;;5093634;28;20510;-75
2022/11/13 12:06:59;;;;;;;10.65;8.40;;;13.20;99.90;;;;;;5108844;28;20486;-76
2022/11/13 12:09:29;;;;;;;11.00;7.97;;;13.20;99.90;;;;;;5097027;28;20954;-75
2022/11/13 12:12:11;;;;;;;10.38;7.60;;;13.10;99.90;;;;;;5110167;28;20454;-75
2022/11/13 12:14:49;;;;;;;10.13;8.13;;;13.00;99.90;;;;;;5097113;28;20431;-75
2022/11/13 12:17:56;;;;;;;10.38;8.07;;;12.90;99.90;;;;;;5104326;28;20468;-75
2022/11/13 12:20:33;;;;;;;11.05;8.75;;;12.80;99.90;;;;;;5016926;28;20417;-75
2022/11/13 12:23:15;;;;;;;11.20;8.27;;;12.60;99.90;;;;;;5091249;28;20412;-75
2022/11/13 12:26:07;;;;;;;9.43;7.67;;;12.50;99.90;;;;;;5105655;28;20936;-75
2022/11/13 12:28:44;;;;;;;10.07;8.18;;;12.40;99.90;;;;;;5104015;28;20408;-75
2022/11/13 12:31:18;;;;;;;11.20;8.05;;;12.40;99.90;;;;;;5096316;28;20430;-75
2022/11/13 12:33:56;;;;;;;10.27;8.00;;;12.30;99.90;;;;;;5091938;28;20428;-75
2022/11/13 12:36:22;;;;;;;10.38;7.97;;;12.30;99.90;;;;;;5110275;28;20428;-75
2022/11/13 12:38:57;;;;;;;10.65;8.57;;;12.30;99.90;;;;;;5089883;28;20436;-75
2022/11/13 12:41:39;;;;;;;14.77;8.10;;;12.20;99.90;;;;;;5088904;28;20425;-75
2022/11/13 12:44:24;;;;;;;11.18;8.48;;;12.10;99.90;;;;;;5109138;28;20426;-75
2022/11/13 12:46:51;;;;;;;9.45;7.90;;;12.10;99.90;;;;;;5105459;28;20970;-75
2022/11/13 12:49:26;;;;;;;9.85;7.50;;;12.10;99.90;;;;;;5088697;28;20406;-76
2022/11/13 12:52:01;;;;;;;10.10;7.65;;;12.10;99.90;;;;;;5099406;28;20446;-75
2022/11/13 12:54:35;;;;;;;10.73;7.57;;;12.10;99.90;;;;;;5099642;28;20430;-75
2022/11/13 12:57:13;;;;;;;8.73;7.40;;;12.00;99.90;;;;;;5102002;28;20463;-76